sensor_id;sensor_type;location;lat;lon;timestamp;P1;durP1;ratioP1;P2;durP2;ratioP2
3967;SDS011;9221;42.646;23.380;2023-12-20T00:01:19;12.30;;;4.80;;
3967;SDS011;9221;42.646;23.380;2023-12-20T00:03:45;14.83;;;5.00;;
3967;SDS011;9221;42.646;23.380;2023-12-20T00:06:10;12.70;;;4.73;;
3967;SDS011;9221;42.646;23.380;2023-12-20T00:08:36;14.13;;;5.23;;
3967;SDS011;9221;42.646;23.380;2023-12-20T00:11:02;20.07;;;6.03;;
3967;SDS011;9221;42.646;23.380;2023-12-20T00:13:28;14.53;;;5.40;;
3967;SDS011;9221;42.646;23.380;2023-12-20T00:15:53;14.80;;;4.83;;
3967;SDS011;9221;42.646;23.380;2023-12-20T00:18:19;12.63;;;5.30;;
3967;SDS011;9221;42.646;23.380;2023-12-20T00:20:44;14.40;;;5.37;;
3967;SDS011;9221;42.646;23.380;2023-12-20T00:23:09;17.47;;;5.83;;
3967;SDS011;9221;42.646;23.380;2023-12-20T00:25:35;20.60;;;6.20;;
3967;SDS011;9221;42.646;23.380;2023-12-20T00:28:00;17.83;;;6.30;;
3967;SDS011;9221;42.646;23.380;2023-12-20T00:30:27;15.77;;;5.77;;
3967;SDS011;9221;42.646;23.380;2023-12-20T00:32:53;18.07;;;6.70;;
3967;SDS011;9221;42.646;23.380;2023-12-20T00:35:18;15.37;;;5.13;;
3967;SDS011;9221;42.646;23.380;2023-12-20T00:37:44;13.50;;;4.90;;
3967;SDS011;9221;42.646;23.380;2023-12-20T00:40:10;15.27;;;5.50;;
3967;SDS011;9221;42.646;23.380;2023-12-20T00:42:36;13.73;;;4.57;;
3967;SDS011;9221;42.646;23.380;2023-12-20T00:45:01;8.37;;;3.80;;
3967;SDS011;9221;42.646;23.380;2023-12-20T00:47:27;7.50;;;2.80;;
3967;SDS011;9221;42.646;23.380;2023-12-20T00:49:53;10.17;;;4.20;;
3967;SDS011;9221;42.646;23.380;2023-12-20T00:52:18;6.67;;;2.63;;
3967;SDS011;9221;42.646;23.380;2023-12-20T00:54:44;16.90;;;4.63;;
3967;SDS011;9221;42.646;23.380;2023-12-20T00:57:10;10.20;;;4.00;;
3967;SDS011;9221;42.646;23.380;2023-12-20T00:59:36;13.10;;;3.87;;
3967;SDS011;9221;42.646;23.380;2023-12-20T01:02:01;10.07;;;3.80;;
3967;SDS011;9221;42.646;23.380;2023-12-20T01:04:27;10.77;;;3.43;;
3967;SDS011;9221;42.646;23.380;2023-12-20T01:06:53;8.63;;;3.10;;
3967;SDS011;9221;42.646;23.380;2023-12-20T01:09:18;8.67;;;3.70;;
3967;SDS011;9221;42.646;23.380;2023-12-20T01:11:44;8.23;;;3.17;;
3967;SDS011;9221;42.646;23.380;2023-12-20T01:14:11;10.60;;;4.03;;
3967;SDS011;9221;42.646;23.380;2023-12-20T01:16:37;7.20;;;2.90;;
3967;SDS011;9221;42.646;23.380;2023-12-20T01:19:02;7.90;;;3.90;;
3967;SDS011;9221;42.646;23.380;2023-12-20T01:21:28;8.03;;;2.83;;
3967;SDS011;9221;42.646;23.380;2023-12-20T01:23:53;12.80;;;4.37;;
3967;SDS011;9221;42.646;23.380;2023-12-20T01:26:19;9.93;;;4.00;;
3967;SDS011;9221;42.646;23.380;2023-12-20T01:28:44;11.80;;;3.93;;
3967;SDS011;9221;42.646;23.380;2023-12-20T01:31:10;12.20;;;4.03;;
3967;SDS011;9221;42.646;23.380;2023-12-20T01:33:35;12.53;;;4.73;;
3967;SDS011;9221;42.646;23.380;2023-12-20T01:36:01;12.57;;;4.27;;
3967;SDS011;9221;42.646;23.380;2023-12-20T01:38:26;13.97;;;4.07;;
3967;SDS011;9221;42.646;23.380;2023-12-20T01:40:52;10.43;;;4.07;;
3967;SDS011;9221;42.646;23.380;2023-12-20T01:43:17;15.77;;;5.60;;
3967;SDS011;9221;42.646;23.380;2023-12-20T01:45:43;14.00;;;4.30;;
3967;SDS011;9221;42.646;23.380;2023-12-20T01:48:08;16.80;;;5.10;;
3967;SDS011;9221;42.646;23.380;2023-12-20T01:50:35;22.67;;;5.80;;
3967;SDS011;9221;42.646;23.380;2023-12-20T01:53:02;11.67;;;4.77;;
3967;SDS011;9221;42.646;23.380;2023-12-20T01:55:30;13.07;;;4.30;;
3967;SDS011;9221;42.646;23.380;2023-12-20T01:57:58;14.73;;;4.57;;
3967;SDS011;9221;42.646;23.380;2023-12-20T02:00:25;11.27;;;4.20;;
3967;SDS011;9221;42.646;23.380;2023-12-20T02:02:53;12.63;;;4.90;;
3967;SDS011;9221;42.646;23.380;2023-12-20T02:05:22;11.50;;;4.30;;
3967;SDS011;9221;42.646;23.380;2023-12-20T02:07:48;11.07;;;3.70;;
3967;SDS011;9221;42.646;23.380;2023-12-20T02:10:14;18.37;;;5.17;;
3967;SDS011;9221;42.646;23.380;2023-12-20T02:12:41;16.93;;;5.30;;
3967;SDS011;9221;42.646;23.380;2023-12-20T02:15:06;10.90;;;4.30;;
3967;SDS011;9221;42.646;23.380;2023-12-20T02:17:32;12.30;;;4.00;;
3967;SDS011;9221;42.646;23.380;2023-12-20T02:19:58;15.40;;;6.27;;
3967;SDS011;9221;42.646;23.380;2023-12-20T02:22:24;10.20;;;3.93;;
3967;SDS011;9221;42.646;23.380;2023-12-20T02:24:49;11.00;;;3.73;;
3967;SDS011;9221;42.646;23.380;2023-12-20T02:27:15;9.70;;;3.80;;
3967;SDS011;9221;42.646;23.380;2023-12-20T02:29:43;10.10;;;4.30;;
3967;SDS011;9221;42.646;23.380;2023-12-20T02:32:08;10.40;;;4.50;;
3967;SDS011;9221;42.646;23.380;2023-12-20T02:34:34;10.30;;;4.27;;
3967;SDS011;9221;42.646;23.380;2023-12-20T02:36:59;11.67;;;4.00;;
3967;SDS011;9221;42.646;23.380;2023-12-20T02:39:25;9.40;;;3.93;;
3967;SDS011;9221;42.646;23.380;2023-12-20T02:41:50;13.93;;;5.03;;
3967;SDS011;9221;42.646;23.380;2023-12-20T02:44:16;6.87;;;3.20;;
3967;SDS011;9221;42.646;23.380;2023-12-20T02:46:41;9.10;;;4.23;;
3967;SDS011;9221;42.646;23.380;2023-12-20T02:49:07;12.10;;;4.10;;
3967;SDS011;9221;42.646;23.380;2023-12-20T02:51:32;12.53;;;4.40;;
3967;SDS011;9221;42.646;23.380;2023-12-20T02:53:58;12.70;;;5.07;;
3967;SDS011;9221;42.646;23.380;2023-12-20T02:56:23;15.30;;;5.80;;
3967;SDS011;9221;42.646;23.380;2023-12-20T02:58:49;29.03;;;9.10;;
3967;SDS011;9221;42.646;23.380;2023-12-20T03:01:14;29.30;;;12.37;;
3967;SDS011;9221;42.646;23.380;2023-12-20T03:03:40;48.10;;;14.40;;
3967;SDS011;9221;42.646;23.380;2023-12-20T03:06:05;46.80;;;17.20;;
3967;SDS011;9221;42.646;23.380;2023-12-20T03:08:31;46.33;;;16.53;;
3967;SDS011;9221;42.646;23.380;2023-12-20T03:10:56;42.67;;;15.03;;
3967;SDS011;9221;42.646;23.380;2023-12-20T03:13:23;39.73;;;15.70;;
3967;SDS011;9221;42.646;23.380;2023-12-20T03:15:49;40.03;;;14.90;;
3967;SDS011;9221;42.646;23.380;2023-12-20T03:18:14;47.07;;;16.03;;
3967;SDS011;9221;42.646;23.380;2023-12-20T03:20:40;49.07;;;15.73;;
3967;SDS011;9221;42.646;23.380;2023-12-20T03:23:06;43.60;;;15.83;;
3967;SDS011;9221;42.646;23.380;2023-12-20T03:25:32;51.67;;;16.57;;
3967;SDS011;9221;42.646;23.380;2023-12-20T03:27:57;45.77;;;15.70;;
3967;SDS011;9221;42.646;23.380;2023-12-20T03:30:23;50.57;;;16.50;;
3967;SDS011;9221;42.646;23.380;2023-12-20T03:32:48;46.13;;;15.83;;
3967;SDS011;9221;42.646;23.380;2023-12-20T03:35:14;50.00;;;16.00;;
3967;SDS011;9221;42.646;23.380;2023-12-20T03:37:39;52.20;;;17.50;;
3967;SDS011;9221;42.646;23.380;2023-12-20T03:40:05;50.53;;;18.83;;
3967;SDS011;9221;42.646;23.380;2023-12-20T03:42:31;44.00;;;16.77;;
3967;SDS011;9221;42.646;23.380;2023-12-20T03:44:56;56.03;;;20.03;;
3967;SDS011;9221;42.646;23.380;2023-12-20T03:47:22;46.83;;;17.30;;
3967;SDS011;9221;42.646;23.380;2023-12-20T03:49:47;60.73;;;19.00;;
3967;SDS011;9221;42.646;23.380;2023-12-20T03:52:13;61.00;;;18.13;;
3967;SDS011;9221;42.646;23.380;2023-12-20T03:54:38;47.53;;;18.13;;
3967;SDS011;9221;42.646;23.380;2023-12-20T03:57:05;55.27;;;16.30;;
3967;SDS011;9221;42.646;23.380;2023-12-20T03:59:34;24.83;;;8.03;;
3967;SDS011;9221;42.646;23.380;2023-12-20T04:02:00;22.60;;;9.60;;
3967;SDS011;9221;42.646;23.380;2023-12-20T04:04:25;26.87;;;8.30;;
3967;SDS011;9221;42.646;23.380;2023-12-20T04:06:51;17.50;;;7.40;;
3967;SDS011;9221;42.646;23.380;2023-12-20T04:09:16;16.33;;;6.20;;
3967;SDS011;9221;42.646;23.380;2023-12-20T04:11:42;16.47;;;6.63;;
3967;SDS011;9221;42.646;23.380;2023-12-20T04:14:07;20.20;;;5.63;;
3967;SDS011;9221;42.646;23.380;2023-12-20T04:16:33;16.13;;;4.97;;
3967;SDS011;9221;42.646;23.380;2023-12-20T04:18:58;10.83;;;4.30;;
3967;SDS011;9221;42.646;23.380;2023-12-20T04:21:24;9.60;;;4.20;;
3967;SDS011;9221;42.646;23.380;2023-12-20T04:23:49;12.47;;;4.30;;
3967;SDS011;9221;42.646;23.380;2023-12-20T04:26:15;14.37;;;3.87;;
3967;SDS011;9221;42.646;23.380;2023-12-20T04:28:40;14.53;;;4.90;;
3967;SDS011;9221;42.646;23.380;2023-12-20T04:31:06;9.93;;;3.57;;
3967;SDS011;9221;42.646;23.380;2023-12-20T04:33:31;12.97;;;5.90;;
3967;SDS011;9221;42.646;23.380;2023-12-20T04:35:57;11.73;;;4.47;;
3967;SDS011;9221;42.646;23.380;2023-12-20T04:38:22;12.63;;;4.10;;
3967;SDS011;9221;42.646;23.380;2023-12-20T04:40:48;8.40;;;3.20;;
3967;SDS011;9221;42.646;23.380;2023-12-20T04:43:13;12.57;;;3.87;;
3967;SDS011;9221;42.646;23.380;2023-12-20T04:45:39;8.03;;;3.30;;
3967;SDS011;9221;42.646;23.380;2023-12-20T04:48:04;16.70;;;4.00;;
3967;SDS011;9221;42.646;23.380;2023-12-20T04:50:30;10.03;;;3.80;;
3967;SDS011;9221;42.646;23.380;2023-12-20T04:52:56;8.73;;;3.50;;
3967;SDS011;9221;42.646;23.380;2023-12-20T04:55:22;13.20;;;4.50;;
3967;SDS011;9221;42.646;23.380;2023-12-20T04:57:47;13.57;;;4.07;;
3967;SDS011;9221;42.646;23.380;2023-12-20T05:00:13;30.57;;;8.40;;
3967;SDS011;9221;42.646;23.380;2023-12-20T05:02:40;51.27;;;14.83;;
3967;SDS011;9221;42.646;23.380;2023-12-20T05:05:06;52.60;;;15.37;;
3967;SDS011;9221;42.646;23.380;2023-12-20T05:07:32;59.63;;;18.10;;
3967;SDS011;9221;42.646;23.380;2023-12-20T05:09:58;56.43;;;16.83;;
3967;SDS011;9221;42.646;23.380;2023-12-20T05:12:24;63.87;;;19.23;;
3967;SDS011;9221;42.646;23.380;2023-12-20T05:14:50;61.50;;;17.90;;
3967;SDS011;9221;42.646;23.380;2023-12-20T05:17:17;61.90;;;18.73;;
3967;SDS011;9221;42.646;23.380;2023-12-20T05:19:42;59.17;;;19.00;;
3967;SDS011;9221;42.646;23.380;2023-12-20T05:22:08;59.00;;;20.30;;
3967;SDS011;9221;42.646;23.380;2023-12-20T05:24:34;62.83;;;18.57;;
3967;SDS011;9221;42.646;23.380;2023-12-20T05:26:59;68.57;;;17.40;;
3967;SDS011;9221;42.646;23.380;2023-12-20T05:29:25;54.10;;;16.20;;
3967;SDS011;9221;42.646;23.380;2023-12-20T05:31:51;56.40;;;17.60;;
3967;SDS011;9221;42.646;23.380;2023-12-20T05:34:17;55.70;;;17.77;;
3967;SDS011;9221;42.646;23.380;2023-12-20T05:36:42;52.83;;;15.40;;
3967;SDS011;9221;42.646;23.380;2023-12-20T05:39:08;57.90;;;17.20;;
3967;SDS011;9221;42.646;23.380;2023-12-20T05:41:33;58.20;;;16.13;;
3967;SDS011;9221;42.646;23.380;2023-12-20T05:43:59;47.33;;;14.10;;
3967;SDS011;9221;42.646;23.380;2023-12-20T05:46:25;46.37;;;14.50;;
3967;SDS011;9221;42.646;23.380;2023-12-20T05:48:51;60.03;;;15.53;;
3967;SDS011;9221;42.646;23.380;2023-12-20T05:51:17;43.03;;;14.63;;
3967;SDS011;9221;42.646;23.380;2023-12-20T05:53:43;44.60;;;14.57;;
3967;SDS011;9221;42.646;23.380;2023-12-20T05:56:09;53.90;;;14.70;;
3967;SDS011;9221;42.646;23.380;2023-12-20T05:58:35;53.07;;;13.03;;
3967;SDS011;9221;42.646;23.380;2023-12-20T06:01:04;61.33;;;12.40;;
3967;SDS011;9221;42.646;23.380;2023-12-20T06:03:30;36.60;;;11.13;;
3967;SDS011;9221;42.646;23.380;2023-12-20T06:05:56;48.07;;;12.67;;
3967;SDS011;9221;42.646;23.380;2023-12-20T06:08:21;38.63;;;11.20;;
3967;SDS011;9221;42.646;23.380;2023-12-20T06:10:48;33.63;;;11.30;;
3967;SDS011;9221;42.646;23.380;2023-12-20T06:13:14;42.80;;;10.67;;
3967;SDS011;9221;42.646;23.380;2023-12-20T06:15:39;33.80;;;10.63;;
3967;SDS011;9221;42.646;23.380;2023-12-20T06:18:08;37.67;;;12.13;;
3967;SDS011;9221;42.646;23.380;2023-12-20T06:20:33;33.30;;;9.93;;
3967;SDS011;9221;42.646;23.380;2023-12-20T06:22:59;60.77;;;10.83;;
3967;SDS011;9221;42.646;23.380;2023-12-20T06:25:24;33.37;;;11.30;;
3967;SDS011;9221;42.646;23.380;2023-12-20T06:27:50;40.37;;;12.37;;
3967;SDS011;9221;42.646;23.380;2023-12-20T06:30:16;42.43;;;11.63;;
3967;SDS011;9221;42.646;23.380;2023-12-20T06:32:41;35.03;;;11.83;;
3967;SDS011;9221;42.646;23.380;2023-12-20T06:35:08;34.43;;;10.70;;
3967;SDS011;9221;42.646;23.380;2023-12-20T06:37:34;31.80;;;10.70;;
3967;SDS011;9221;42.646;23.380;2023-12-20T06:40:00;36.80;;;12.17;;
3967;SDS011;9221;42.646;23.380;2023-12-20T06:42:26;36.23;;;11.00;;
3967;SDS011;9221;42.646;23.380;2023-12-20T06:44:51;36.90;;;12.67;;
3967;SDS011;9221;42.646;23.380;2023-12-20T06:47:17;56.67;;;13.20;;
3967;SDS011;9221;42.646;23.380;2023-12-20T06:49:43;40.27;;;12.27;;
3967;SDS011;9221;42.646;23.380;2023-12-20T06:52:08;36.87;;;11.90;;
3967;SDS011;9221;42.646;23.380;2023-12-20T06:54:34;25.83;;;10.27;;
3967;SDS011;9221;42.646;23.380;2023-12-20T06:56:59;46.40;;;11.57;;
3967;SDS011;9221;42.646;23.380;2023-12-20T06:59:25;41.63;;;11.40;;
3967;SDS011;9221;42.646;23.380;2023-12-20T07:01:51;36.80;;;11.90;;
3967;SDS011;9221;42.646;23.380;2023-12-20T07:04:16;39.30;;;12.73;;
3967;SDS011;9221;42.646;23.380;2023-12-20T07:06:45;31.47;;;10.43;;
3967;SDS011;9221;42.646;23.380;2023-12-20T07:09:11;41.83;;;13.73;;
3967;SDS011;9221;42.646;23.380;2023-12-20T07:11:38;33.00;;;11.63;;
3967;SDS011;9221;42.646;23.380;2023-12-20T07:14:03;41.10;;;12.57;;
3967;SDS011;9221;42.646;23.380;2023-12-20T07:16:29;31.83;;;11.17;;
3967;SDS011;9221;42.646;23.380;2023-12-20T07:18:54;27.23;;;10.20;;
3967;SDS011;9221;42.646;23.380;2023-12-20T07:21:21;26.77;;;10.27;;
3967;SDS011;9221;42.646;23.380;2023-12-20T07:23:46;29.70;;;9.70;;
3967;SDS011;9221;42.646;23.380;2023-12-20T07:26:12;31.40;;;11.37;;
3967;SDS011;9221;42.646;23.380;2023-12-20T07:28:37;38.47;;;12.43;;
3967;SDS011;9221;42.646;23.380;2023-12-20T07:31:03;33.43;;;12.23;;
3967;SDS011;9221;42.646;23.380;2023-12-20T07:33:28;28.67;;;10.80;;
3967;SDS011;9221;42.646;23.380;2023-12-20T07:35:55;26.17;;;10.17;;
3967;SDS011;9221;42.646;23.380;2023-12-20T07:38:20;36.77;;;13.87;;
3967;SDS011;9221;42.646;23.380;2023-12-20T07:40:45;51.57;;;14.00;;
3967;SDS011;9221;42.646;23.380;2023-12-20T07:43:11;31.00;;;10.50;;
3967;SDS011;9221;42.646;23.380;2023-12-20T07:45:37;38.90;;;12.90;;
3967;SDS011;9221;42.646;23.380;2023-12-20T07:48:03;41.47;;;12.17;;
3967;SDS011;9221;42.646;23.380;2023-12-20T07:50:30;31.93;;;11.10;;
3967;SDS011;9221;42.646;23.380;2023-12-20T07:52:55;47.83;;;14.30;;
3967;SDS011;9221;42.646;23.380;2023-12-20T07:55:21;79.07;;;18.20;;
3967;SDS011;9221;42.646;23.380;2023-12-20T07:57:46;54.43;;;16.20;;
3967;SDS011;9221;42.646;23.380;2023-12-20T08:00:12;50.10;;;14.63;;
3967;SDS011;9221;42.646;23.380;2023-12-20T08:02:38;59.20;;;17.07;;
3967;SDS011;9221;42.646;23.380;2023-12-20T08:05:03;80.57;;;17.73;;
3967;SDS011;9221;42.646;23.380;2023-12-20T08:07:29;51.33;;;16.10;;
3967;SDS011;9221;42.646;23.380;2023-12-20T08:09:54;69.87;;;16.53;;
3967;SDS011;9221;42.646;23.380;2023-12-20T08:12:21;66.97;;;16.80;;
3967;SDS011;9221;42.646;23.380;2023-12-20T08:14:47;63.40;;;16.80;;
3967;SDS011;9221;42.646;23.380;2023-12-20T08:17:13;72.13;;;20.50;;
3967;SDS011;9221;42.646;23.380;2023-12-20T08:19:41;92.40;;;22.93;;
3967;SDS011;9221;42.646;23.380;2023-12-20T08:22:07;104.80;;;21.53;;
3967;SDS011;9221;42.646;23.380;2023-12-20T08:24:32;92.90;;;23.00;;
3967;SDS011;9221;42.646;23.380;2023-12-20T08:26:57;93.50;;;22.63;;
3967;SDS011;9221;42.646;23.380;2023-12-20T08:29:23;87.93;;;22.23;;
3967;SDS011;9221;42.646;23.380;2023-12-20T08:31:52;86.07;;;20.30;;
3967;SDS011;9221;42.646;23.380;2023-12-20T08:34:20;78.60;;;22.33;;
3967;SDS011;9221;42.646;23.380;2023-12-20T08:36:46;72.57;;;21.50;;
3967;SDS011;9221;42.646;23.380;2023-12-20T08:39:12;62.70;;;19.63;;
3967;SDS011;9221;42.646;23.380;2023-12-20T08:41:37;93.33;;;21.40;;
3967;SDS011;9221;42.646;23.380;2023-12-20T08:44:03;78.33;;;21.97;;
3967;SDS011;9221;42.646;23.380;2023-12-20T08:46:28;75.10;;;21.80;;
3967;SDS011;9221;42.646;23.380;2023-12-20T08:48:54;77.80;;;19.67;;
3967;SDS011;9221;42.646;23.380;2023-12-20T08:51:20;66.03;;;19.67;;
3967;SDS011;9221;42.646;23.380;2023-12-20T08:53:47;57.27;;;18.20;;
3967;SDS011;9221;42.646;23.380;2023-12-20T08:56:14;74.50;;;20.43;;
3967;SDS011;9221;42.646;23.380;2023-12-20T08:58:39;59.97;;;18.57;;
3967;SDS011;9221;42.646;23.380;2023-12-20T09:01:05;66.57;;;18.37;;
3967;SDS011;9221;42.646;23.380;2023-12-20T09:03:30;53.00;;;16.73;;
3967;SDS011;9221;42.646;23.380;2023-12-20T09:05:56;69.10;;;19.10;;
3967;SDS011;9221;42.646;23.380;2023-12-20T09:08:21;75.67;;;19.90;;
3967;SDS011;9221;42.646;23.380;2023-12-20T09:10:47;68.50;;;18.33;;
3967;SDS011;9221;42.646;23.380;2023-12-20T09:13:12;82.57;;;20.90;;
3967;SDS011;9221;42.646;23.380;2023-12-20T09:15:38;80.67;;;20.10;;
3967;SDS011;9221;42.646;23.380;2023-12-20T09:18:03;69.90;;;21.40;;
3967;SDS011;9221;42.646;23.380;2023-12-20T09:20:29;79.97;;;19.80;;
3967;SDS011;9221;42.646;23.380;2023-12-20T09:22:55;58.53;;;18.20;;
3967;SDS011;9221;42.646;23.380;2023-12-20T09:25:20;71.47;;;18.10;;
3967;SDS011;9221;42.646;23.380;2023-12-20T09:27:48;68.43;;;19.70;;
3967;SDS011;9221;42.646;23.380;2023-12-20T09:30:13;75.27;;;19.77;;
3967;SDS011;9221;42.646;23.380;2023-12-20T09:32:39;65.80;;;19.40;;
3967;SDS011;9221;42.646;23.380;2023-12-20T09:35:05;80.00;;;20.20;;
3967;SDS011;9221;42.646;23.380;2023-12-20T09:37:31;98.90;;;22.97;;
3967;SDS011;9221;42.646;23.380;2023-12-20T09:39:57;80.50;;;19.07;;
3967;SDS011;9221;42.646;23.380;2023-12-20T09:42:57;76.53;;;19.13;;
3967;SDS011;9221;42.646;23.380;2023-12-20T09:45:35;63.90;;;19.63;;
3967;SDS011;9221;42.646;23.380;2023-12-20T09:48:01;77.27;;;21.13;;
3967;SDS011;9221;42.646;23.380;2023-12-20T09:50:30;80.00;;;22.30;;
3967;SDS011;9221;42.646;23.380;2023-12-20T09:52:57;72.87;;;20.27;;
3967;SDS011;9221;42.646;23.380;2023-12-20T09:55:25;92.33;;;22.63;;
3967;SDS011;9221;42.646;23.380;2023-12-20T09:57:51;103.40;;;23.23;;
3967;SDS011;9221;42.646;23.380;2023-12-20T10:00:17;81.30;;;23.10;;
3967;SDS011;9221;42.646;23.380;2023-12-20T10:02:58;81.07;;;22.70;;
3967;SDS011;9221;42.646;23.380;2023-12-20T10:05:34;67.70;;;20.17;;
3967;SDS011;9221;42.646;23.380;2023-12-20T10:08:00;75.07;;;22.63;;
3967;SDS011;9221;42.646;23.380;2023-12-20T10:10:26;101.23;;;23.70;;
3967;SDS011;9221;42.646;23.380;2023-12-20T10:15:32;83.50;;;23.17;;
3967;SDS011;9221;42.646;23.380;2023-12-20T10:18:02;75.27;;;22.10;;
3967;SDS011;9221;42.646;23.380;2023-12-20T10:20:28;85.60;;;21.40;;
3967;SDS011;9221;42.646;23.380;2023-12-20T10:22:54;86.53;;;23.40;;
3967;SDS011;9221;42.646;23.380;2023-12-20T10:25:20;77.80;;;23.13;;
3967;SDS011;9221;42.646;23.380;2023-12-20T10:27:47;83.10;;;22.07;;
3967;SDS011;9221;42.646;23.380;2023-12-20T10:30:13;83.53;;;26.20;;
3967;SDS011;9221;42.646;23.380;2023-12-20T10:32:39;81.63;;;23.90;;
3967;SDS011;9221;42.646;23.380;2023-12-20T10:35:06;77.80;;;23.57;;
3967;SDS011;9221;42.646;23.380;2023-12-20T10:37:35;73.37;;;20.90;;
3967;SDS011;9221;42.646;23.380;2023-12-20T10:40:02;75.70;;;21.80;;
3967;SDS011;9221;42.646;23.380;2023-12-20T10:42:29;77.67;;;22.57;;
3967;SDS011;9221;42.646;23.380;2023-12-20T10:44:55;73.47;;;22.07;;
3967;SDS011;9221;42.646;23.380;2023-12-20T10:47:21;64.40;;;19.77;;
3967;SDS011;9221;42.646;23.380;2023-12-20T10:49:47;70.23;;;21.27;;
3967;SDS011;9221;42.646;23.380;2023-12-20T10:52:14;80.03;;;22.20;;
3967;SDS011;9221;42.646;23.380;2023-12-20T10:54:42;72.03;;;21.10;;
3967;SDS011;9221;42.646;23.380;2023-12-20T10:57:07;74.77;;;23.60;;
3967;SDS011;9221;42.646;23.380;2023-12-20T10:59:33;71.70;;;22.20;;
3967;SDS011;9221;42.646;23.380;2023-12-20T11:02:02;69.90;;;21.23;;
3967;SDS011;9221;42.646;23.380;2023-12-20T11:04:41;78.17;;;21.40;;
3967;SDS011;9221;42.646;23.380;2023-12-20T11:09:43;90.23;;;24.10;;
3967;SDS011;9221;42.646;23.380;2023-12-20T11:12:18;94.47;;;22.10;;
3967;SDS011;9221;42.646;23.380;2023-12-20T11:14:52;82.07;;;24.23;;
3967;SDS011;9221;42.646;23.380;2023-12-20T11:17:22;87.00;;;23.70;;
3967;SDS011;9221;42.646;23.380;2023-12-20T11:22:26;87.83;;;24.77;;
3967;SDS011;9221;42.646;23.380;2023-12-20T11:24:55;76.53;;;24.00;;
3967;SDS011;9221;42.646;23.380;2023-12-20T11:27:23;95.83;;;24.10;;
3967;SDS011;9221;42.646;23.380;2023-12-20T11:29:52;78.13;;;24.33;;
3967;SDS011;9221;42.646;23.380;2023-12-20T11:35:16;82.80;;;22.93;;
3967;SDS011;9221;42.646;23.380;2023-12-20T11:37:37;80.80;;;22.90;;
3967;SDS011;9221;42.646;23.380;2023-12-20T11:40:07;71.50;;;20.97;;
3967;SDS011;9221;42.646;23.380;2023-12-20T11:42:40;79.97;;;22.50;;
3967;SDS011;9221;42.646;23.380;2023-12-20T11:45:10;71.80;;;21.40;;
3967;SDS011;9221;42.646;23.380;2023-12-20T11:47:36;71.00;;;21.43;;
3967;SDS011;9221;42.646;23.380;2023-12-20T11:50:02;64.63;;;20.00;;
3967;SDS011;9221;42.646;23.380;2023-12-20T11:52:29;75.00;;;21.20;;
3967;SDS011;9221;42.646;23.380;2023-12-20T11:54:56;64.80;;;19.07;;
3967;SDS011;9221;42.646;23.380;2023-12-20T11:57:22;85.10;;;20.50;;
3967;SDS011;9221;42.646;23.380;2023-12-20T11:59:48;66.07;;;20.77;;
3967;SDS011;9221;42.646;23.380;2023-12-20T12:02:13;68.30;;;20.53;;
3967;SDS011;9221;42.646;23.380;2023-12-20T12:04:41;94.93;;;24.50;;
3967;SDS011;9221;42.646;23.380;2023-12-20T12:07:07;86.30;;;25.17;;
3967;SDS011;9221;42.646;23.380;2023-12-20T12:09:32;68.00;;;21.90;;
3967;SDS011;9221;42.646;23.380;2023-12-20T12:11:58;77.20;;;22.63;;
3967;SDS011;9221;42.646;23.380;2023-12-20T12:14:24;76.97;;;22.90;;
3967;SDS011;9221;42.646;23.380;2023-12-20T12:16:49;90.20;;;22.80;;
3967;SDS011;9221;42.646;23.380;2023-12-20T12:19:25;81.70;;;24.90;;
3967;SDS011;9221;42.646;23.380;2023-12-20T12:22:04;81.87;;;22.20;;
3967;SDS011;9221;42.646;23.380;2023-12-20T12:24:32;86.07;;;24.20;;
3967;SDS011;9221;42.646;23.380;2023-12-20T12:26:57;94.23;;;23.03;;
3967;SDS011;9221;42.646;23.380;2023-12-20T12:29:23;91.83;;;23.20;;
3967;SDS011;9221;42.646;23.380;2023-12-20T12:31:49;82.17;;;24.03;;
3967;SDS011;9221;42.646;23.380;2023-12-20T12:34:15;82.90;;;22.60;;
3967;SDS011;9221;42.646;23.380;2023-12-20T12:36:42;89.83;;;21.00;;
3967;SDS011;9221;42.646;23.380;2023-12-20T12:39:08;82.83;;;22.23;;
3967;SDS011;9221;42.646;23.380;2023-12-20T12:41:34;61.80;;;20.47;;
3967;SDS011;9221;42.646;23.380;2023-12-20T12:44:00;89.33;;;21.90;;
3967;SDS011;9221;42.646;23.380;2023-12-20T12:46:25;67.83;;;22.83;;
3967;SDS011;9221;42.646;23.380;2023-12-20T12:48:51;74.00;;;19.73;;
3967;SDS011;9221;42.646;23.380;2023-12-20T12:51:16;71.97;;;21.90;;
3967;SDS011;9221;42.646;23.380;2023-12-20T12:53:42;57.60;;;21.07;;
3967;SDS011;9221;42.646;23.380;2023-12-20T12:56:07;61.40;;;20.00;;
3967;SDS011;9221;42.646;23.380;2023-12-20T12:58:33;67.63;;;20.53;;
3967;SDS011;9221;42.646;23.380;2023-12-20T13:00:59;69.73;;;21.07;;
3967;SDS011;9221;42.646;23.380;2023-12-20T13:03:24;71.53;;;20.40;;
3967;SDS011;9221;42.646;23.380;2023-12-20T13:05:50;76.30;;;21.50;;
3967;SDS011;9221;42.646;23.380;2023-12-20T13:08:15;98.90;;;22.33;;
3967;SDS011;9221;42.646;23.380;2023-12-20T13:10:41;61.30;;;20.27;;
3967;SDS011;9221;42.646;23.380;2023-12-20T13:13:07;75.57;;;21.80;;
3967;SDS011;9221;42.646;23.380;2023-12-20T13:15:32;87.73;;;22.97;;
3967;SDS011;9221;42.646;23.380;2023-12-20T13:17:58;76.67;;;22.10;;
3967;SDS011;9221;42.646;23.380;2023-12-20T13:20:23;74.30;;;21.17;;
3967;SDS011;9221;42.646;23.380;2023-12-20T13:22:49;69.83;;;21.60;;
3967;SDS011;9221;42.646;23.380;2023-12-20T13:25:14;69.97;;;19.90;;
3967;SDS011;9221;42.646;23.380;2023-12-20T13:27:40;71.13;;;22.00;;
3967;SDS011;9221;42.646;23.380;2023-12-20T13:30:06;90.23;;;20.90;;
3967;SDS011;9221;42.646;23.380;2023-12-20T13:32:32;74.27;;;21.93;;
3967;SDS011;9221;42.646;23.380;2023-12-20T13:34:58;85.30;;;22.43;;
3967;SDS011;9221;42.646;23.380;2023-12-20T13:37:23;84.00;;;20.40;;
3967;SDS011;9221;42.646;23.380;2023-12-20T13:39:49;75.90;;;20.00;;
3967;SDS011;9221;42.646;23.380;2023-12-20T13:42:14;70.80;;;19.63;;
3967;SDS011;9221;42.646;23.380;2023-12-20T13:44:40;78.60;;;20.57;;
3967;SDS011;9221;42.646;23.380;2023-12-20T13:47:05;77.70;;;20.47;;
3967;SDS011;9221;42.646;23.380;2023-12-20T13:49:31;73.50;;;19.13;;
3967;SDS011;9221;42.646;23.380;2023-12-20T13:51:57;71.73;;;21.17;;
3967;SDS011;9221;42.646;23.380;2023-12-20T13:54:23;67.80;;;19.07;;
3967;SDS011;9221;42.646;23.380;2023-12-20T13:56:49;81.60;;;19.90;;
3967;SDS011;9221;42.646;23.380;2023-12-20T13:59:15;76.33;;;21.97;;
3967;SDS011;9221;42.646;23.380;2023-12-20T14:01:41;67.50;;;21.00;;
3967;SDS011;9221;42.646;23.380;2023-12-20T14:04:07;76.57;;;21.77;;
3967;SDS011;9221;42.646;23.380;2023-12-20T14:06:32;72.50;;;22.10;;
3967;SDS011;9221;42.646;23.380;2023-12-20T14:08:58;71.53;;;20.13;;
3967;SDS011;9221;42.646;23.380;2023-12-20T14:11:27;79.53;;;21.23;;
3967;SDS011;9221;42.646;23.380;2023-12-20T14:13:53;64.50;;;21.40;;
3967;SDS011;9221;42.646;23.380;2023-12-20T14:16:23;92.87;;;22.07;;
3967;SDS011;9221;42.646;23.380;2023-12-20T14:18:51;76.63;;;20.63;;
3967;SDS011;9221;42.646;23.380;2023-12-20T14:21:17;89.50;;;23.90;;
3967;SDS011;9221;42.646;23.380;2023-12-20T14:23:43;80.57;;;22.30;;
3967;SDS011;9221;42.646;23.380;2023-12-20T14:26:08;73.43;;;21.07;;
3967;SDS011;9221;42.646;23.380;2023-12-20T14:28:40;88.17;;;22.70;;
3967;SDS011;9221;42.646;23.380;2023-12-20T14:31:06;80.17;;;21.40;;
3967;SDS011;9221;42.646;23.380;2023-12-20T14:33:32;83.90;;;23.30;;
3967;SDS011;9221;42.646;23.380;2023-12-20T14:35:57;69.70;;;20.30;;
3967;SDS011;9221;42.646;23.380;2023-12-20T14:38:22;95.93;;;24.07;;
3967;SDS011;9221;42.646;23.380;2023-12-20T14:40:48;81.97;;;23.90;;
3967;SDS011;9221;42.646;23.380;2023-12-20T14:43:15;90.13;;;24.30;;